• Join FlightAware (Why Join?)
  • Login
  • US Flag 
10:31PM EST


 

Airport Tracker/Info


-or-


 

Live Flight TrackerFlight Track Log ✈ SWA3833 ✈ 26-Oct-2013 ✈ KALB - KMCO

Flight Track Log - Related Links

Times and Time Zones

All times are in EDT time to prevent confusion due to time zone crossing. See the SWA3833 flight status page for this flight to view local times or setup timezone preferences in your user account.

Time Position Orientation Groundspeed Altitude Reporting Facility
EDT Latitude Longitude Course Direction KTS MPH feet Rate Location/Type
04:01PM 42.7256 -73.8031 190° South 135 155 1,700  Level Boston Center
04:02PM 42.7053 -73.8081 190° South 158 182 2,500 2,220 Climbing Boston Center
04:03PM 42.7064 -73.8522 272° West 208 239 4,300 3,300 Climbing Boston Center
04:04PM 42.7533 -73.9003 323° Northwest 212 244 8,000 3,660 Climbing Boston Center
04:05PM 42.7736 -73.9714 291° West 204 235 11,700 3,300 Climbing Boston Center
04:06PM 42.7650 -74.0281 258° West 200 230 14,900 2,220 Climbing Boston Center
04:07PM 42.6861 -74.0125 172° South 276 318 16,300 1,740 Climbing Boston Center
04:08PM 42.5919 -73.9969 173° South 342 394 18,500 2,100 Climbing Boston Center
04:09PM 42.5047 -73.9814 173° South 356 410 20,700 2,280 Climbing Boston Center
04:10PM 42.4019 -73.9617 172° South 368 423 23,200 2,280 Climbing Boston Center
04:11PM 42.2936 -73.9406 172° South 383 441 25,300 2,040 Climbing Boston Center
04:12PM 42.1611 -73.9178 173° South 405 466 27,400 1,860 Climbing Boston Center
04:13PM 42.0472 -73.8958 172° South 414 476 29,100 1,620 Climbing Boston Center
04:14PM 41.9286 -73.8736 172° South 428 493 30,800 1,680 Climbing Boston Center
04:15PM 41.8153 -73.8839 184° South 416 479 32,600 1,620 Climbing Boston Center
04:16PM 41.7067 -73.9350 199° South 394 453 34,100 1,620 Climbing Boston Center
04:17PM 41.6042 -73.9872 201° Southwest 395 455 36,000 1,380 Climbing Boston Center
04:18PM 41.5047 -74.0389 201° Southwest 389 448 37,000 960 Climbing Boston Center
04:19PM 41.4000 -74.0911 201° Southwest 398 458 38,000 420 Climbing Boston Center
04:20PM 41.2503 -74.1681 201° Southwest 398 458 38,000  Level New York Center
04:21PM 41.1447 -74.2153 199° South 398 458 38,000  Level New York Center
04:22PM 41.0411 -74.2650 200° South 398 458 38,000  Level New York Center
04:23PM 40.9375 -74.3200 202° Southwest 398 458 38,000  Level New York Center
04:24PM 40.8317 -74.3719 200° South 398 458 38,000  Level New York Center
04:25PM 40.7303 -74.4214 200° South 398 458 38,000 300 Level New York Center
04:26PM 40.6264 -74.4733 201° Southwest 398 458 38,700 720 Climbing New York Center
04:27PM 40.5206 -74.5250 200° South 398 458 39,500 360 Climbing New York Center
04:30PM 40.2889 -74.6369 200° South 394 453 40,000 120 Climbing Washington Center
04:31PM 40.1850 -74.6900 201° Southwest 394 453 40,000  Level Washington Center
04:32PM 40.0814 -74.7400 200° South 394 453 40,000  Level Washington Center
04:33PM 39.9794 -74.7847 199° South 394 453 40,000  Level Washington Center
04:34PM 39.8883 -74.8317 202° Southwest 394 453 40,000  Level Washington Center
04:35PM 39.7739 -74.8897 201° Southwest 394 453 40,000  Level Washington Center
04:36PM 39.6825 -74.9336 200° South 394 453 40,000  Level Washington Center
04:37PM 39.5786 -74.9939 204° Southwest 399 459 40,000  Level Washington Center
04:38PM 39.4811 -75.0539 205° Southwest 394 453 40,000 -60 Level Washington Center
04:39PM 39.3856 -75.1136 206° Southwest 394 453 39,900  Descending Washington Center
04:40PM 39.2856 -75.1706 204° Southwest 394 453 40,000  Climbing Washington Center
04:41PM 39.1858 -75.2247 203° Southwest 394 453 40,000  Level Washington Center
04:42PM 39.0858 -75.2894 207° Southwest 394 453 40,000  Level Washington Center
04:43PM 38.9858 -75.3458 204° Southwest 394 453 40,000  Level Washington Center
04:44PM 38.8861 -75.4022 204° Southwest 399 459 40,000  Level Washington Center
04:45PM 38.7861 -75.4611 205° Southwest 399 459 40,000  Level Washington Center
04:46PM 38.6839 -75.5200 204° Southwest 399 459 40,000  Level Washington Center
04:47PM 38.5839 -75.5783 205° Southwest 399 459 40,000  Level Washington Center
04:48PM 38.4797 -75.6367 204° Southwest 399 459 40,000  Level Washington Center
04:49PM 38.3794 -75.6975 205° Southwest 399 459 40,000  Level Washington Center
04:50PM 38.2647 -75.7608 203° Southwest 404 465 40,000  Level Washington Center
04:51PM 38.1625 -75.8189 204° Southwest 404 465 40,000  Level Washington Center
04:52PM 38.0603 -75.8739 203° Southwest 404 465 40,000  Level Washington Center
04:53PM 37.9600 -75.9314 204° Southwest 399 459 40,000  Level Washington Center
04:54PM 37.8556 -75.9917 205° Southwest 399 459 40,000  Level Washington Center
04:55PM 37.7531 -76.0542 206° Southwest 399 459 40,000  Level Washington Center
04:56PM 37.6486 -76.1164 205° Southwest 405 466 40,000  Level Washington Center
04:57PM 37.5397 -76.1681 201° Southwest 410 472 40,000  Level Washington Center
04:58PM 37.4353 -76.2275 204° Southwest 416 479 40,000  Level Washington Center
04:59PM 37.3306 -76.2839 203° Southwest 416 479 40,000  Level Washington Center
05:00PM 37.2239 -76.3456 205° Southwest 421 484 40,000  Level Washington Center
05:01PM 37.1192 -76.4019 203° Southwest 421 484 40,000  Level Washington Center
05:02PM 37.0125 -76.4606 204° Southwest 421 484 40,000  Level Washington Center
05:03PM 36.9078 -76.5192 204° Southwest 421 484 40,000  Level Washington Center
05:04PM 36.7989 -76.5672 199° South 421 484 40,000  Level Washington Center
05:05PM 36.6900 -76.6175 200° South 421 484 40,000  Level Washington Center
05:06PM 36.5769 -76.6628 198° South 426 490 40,000  Level Washington Center
05:07PM 36.4617 -76.7075 197° South 426 490 40,000  Level Washington Center
05:08PM 36.3508 -76.7525 198° South 426 490 40,000  Level Washington Center
05:09PM 36.2375 -76.7972 198° South 426 490 40,000  Level Washington Center
05:10PM 36.1244 -76.8417 198° South 426 490 40,000  Level Washington Center
05:11PM 36.0239 -76.8839 199° South 426 490 40,000  Level Washington Center
05:12PM 35.9150 -76.9283 198° South 426 490 40,000  Level Washington Center
05:13PM 35.8058 -76.9725 198° South 426 490 40,000  Level Washington Center
05:14PM 35.6969 -77.0142 197° South 421 484 40,000  Level Washington Center
05:15PM 35.5817 -77.0606 198° South 416 479 40,000  Level Washington Center
05:16PM 35.4706 -77.1069 199° South 416 479 40,000  Level Washington Center
05:17PM 35.3614 -77.1483 197° South 416 479 40,000  Level Washington Center
05:18PM 35.2522 -77.1919 198° South 416 479 40,000  Level Washington Center
05:19PM 35.1433 -77.2331 197° South 416 479 40,000  Level Washington Center
05:20PM 35.0322 -77.2764 198° South 416 479 40,000  Level Washington Center
05:21PM 34.9208 -77.3197 198° South 416 479 40,000  Level Washington Center
05:22PM 34.8222 -77.3631 200° South 422 486 40,000  Level Washington Center
05:23PM 34.7089 -77.4061 197° South 428 493 40,000  Level Washington Center
05:24PM 34.5956 -77.4514 198° South 428 493 40,000  Level Washington Center
05:25PM 34.4842 -77.4944 198° South 428 493 40,000  Level Washington Center
05:26PM 34.3750 -77.5369 198° South 428 493 40,000  Level Washington Center
05:27PM 34.1867 -77.6086 197° South 416 479 40,000  Level Jacksonville Center
05:28PM 34.0736 -77.6481 196° South 416 479 40,000  Level Jacksonville Center
05:29PM 33.9631 -77.6947 199° South 416 479 40,000  Level Jacksonville Center
05:30PM 33.8561 -77.7336 197° South 411 473 40,000  Level Jacksonville Center
05:31PM 33.7472 -77.7725 197° South 411 473 40,000  Level Jacksonville Center
05:32PM 33.6364 -77.8189 199° South 416 479 40,000  Level Jacksonville Center
05:33PM 33.5294 -77.8572 197° South 416 479 40,000  Level Jacksonville Center
05:34PM 33.4183 -77.9011 198° South 416 479 40,000  Level Jacksonville Center
05:35PM 33.3075 -77.9419 197° South 416 479 40,000  Level Jacksonville Center
05:36PM 33.1983 -77.9853 198° South 416 479 40,000  Level Jacksonville Center
05:37PM 33.0894 -78.0236 196° South 416 479 40,000  Level Jacksonville Center
05:38PM 32.9825 -78.0664 199° South 416 479 40,000  Level Jacksonville Center
05:39PM 32.8711 -78.1019 195° South 416 479 40,000  Level Jacksonville Center
05:40PM 32.7664 -78.1447 199° South 411 473 40,000  Level Jacksonville Center
05:41PM 32.6592 -78.1847 197° South 411 473 40,000  Level Jacksonville Center
05:42PM 32.5500 -78.2225 196° South 411 473 40,000  Level Jacksonville Center
05:43PM 32.4431 -78.2625 198° South 411 473 40,000  Level Jacksonville Center
05:44PM 32.3236 -78.3103 199° South 421 484 40,000  Level Jacksonville Center
05:45PM 32.2167 -78.3500 197° South 416 479 40,000  Level Jacksonville Center
05:46PM 32.1075 -78.3897 197° South 416 479 40,000  Level Jacksonville Center
05:47PM 32.0003 -78.4294 197° South 416 479 40,000  Level Jacksonville Center
05:48PM 31.8931 -78.4689 197° South 416 479 40,000  Level Jacksonville Center
05:49PM 31.7858 -78.5081 197° South 415 478 40,000  Level Jacksonville Center
05:50PM 31.6767 -78.5500 198° South 410 472 40,000  Level Jacksonville Center
05:51PM 31.5714 -78.5864 196° South 403 464 40,000  Level Jacksonville Center
05:52PM 31.4642 -78.6256 197° South 392 451 40,000  Level Jacksonville Center
05:53PM 31.3550 -78.6647 197° South 401 461 40,000  Level Jacksonville Center
05:54PM 31.2519 -78.7033 198° South 408 470 40,000  Level Jacksonville Center
05:55PM 31.1569 -78.7367 197° South 402 463 40,000  Level Jacksonville Center
05:56PM 31.0497 -78.7753 197° South 397 457 40,000  Level Jacksonville Center
05:57PM 30.9422 -78.8114 196° South 397 457 40,000 -60 Level Jacksonville Center
05:58PM 30.8392 -78.8497 198° South 397 457 39,900  Descending Jacksonville Center
05:59PM 30.7378 -78.8831 196° South 397 457 40,000  Climbing Jacksonville Center
06:00PM 30.6114 -78.9278 197° South 405 466 40,000  Level Miami Center
06:01PM 30.5086 -78.9667 198° South 399 459 40,000  Level Miami Center
06:02PM 30.3997 -79.0031 196° South 393 452 40,000  Level Miami Center
06:03PM 30.3072 -79.0564 206° Southwest 393 452 40,000  Level Miami Center
06:04PM 30.2206 -79.1242 214° Southwest 380 437 40,000  Level Miami Center
06:05PM 30.1383 -79.1919 215° Southwest 380 437 40,000  Level Miami Center
06:06PM 30.0475 -79.2594 213° Southwest 380 437 40,000  Level Miami Center
06:07PM 29.9733 -79.3247 217° Southwest 380 437 40,000 -60 Level Miami Center
06:08PM 29.8742 -79.3944 211° Southwest 380 437 39,900 -600 Descending Miami Center
06:09PM 29.7875 -79.4617 214° Southwest 385 443 38,900 -900 Descending Miami Center
06:10PM 29.7092 -79.5314 218° Southwest 385 443 38,100 -900 Descending Miami Center
06:11PM 29.6222 -79.5961 213° Southwest 385 443 37,100 -960 Descending Miami Center
06:12PM 29.5356 -79.6656 215° Southwest 385 443 36,200 -960 Descending Miami Center
06:13PM 29.4486 -79.7300 213° Southwest 385 443 35,200 -1,020 Descending Miami Center
06:14PM 29.3617 -79.7967 214° Southwest 379 436 34,200 -1,260 Descending Miami Center
06:15PM 29.2708 -79.8608 212° Southwest 384 442 32,700 -2,400 Descending Miami Center
06:16PM 29.1817 -79.9297 214° Southwest 390 449 29,400 -3,300 Descending Miami Center
06:17PM 29.0819 -80.0078 214° Southwest 408 470 26,200 -3,060 Descending Miami Center
06:18PM 28.9844 -80.0808 213° Southwest 424 488 23,300 -2,880 Descending Miami Center
06:19PM 28.9072 -80.1664 224° Southwest 424 488 20,500 -3,000 Descending Miami Center
06:20PM 28.8750 -80.2933 254° West 380 437 17,400 -2,520 Descending Miami Center
06:22PM 28.8333 -80.4667 255° West 353 406 14,000 -1,320 Descending Orlando TRACON
06:23PM 28.8167 -80.5667 259° West 352 405 14,000 -480 Level Orlando TRACON
06:24PM 28.7833 -80.6667 249° West 354 407 13,100 -1,260 Descending Orlando TRACON
06:25PM 28.7333 -80.7667 240° Southwest 343 395 11,500 -1,500 Descending Orlando TRACON
06:26PM 28.6833 -80.8667 240° Southwest 344 396 10,100 -780 Descending Orlando TRACON
06:27PM 28.6500 -80.9667 249° West 333 383 10,000 -360 Descending Orlando TRACON
06:28PM 28.5833 -81.0167 213° Southwest 284 327 9,400 -900 Descending Orlando TRACON
06:29PM 28.5167 -81.0667 213° Southwest 275 316 8,300 -1,080 Descending Orlando TRACON
06:30PM 28.4667 -81.1167 221° Southwest 233 268 7,300 -1,320 Descending Orlando TRACON
06:31PM 28.4167 -81.1667 221° Southwest 224 258 5,600 -1,620 Descending Orlando TRACON
06:32PM 28.3500 -81.1833 192° South 217 250 4,000 -1,800 Descending Orlando TRACON
06:33PM 28.3000 -81.2167 210° Southwest 217 250 2,000 -1,200 Descending Orlando TRACON
06:34PM 28.3333 -81.2500 319° Northwest 178 205 1,600 -420 Descending Orlando TRACON
06:35PM 28.3500 -81.2833 300° West 140 161 1,300 -600 Descending Orlando TRACON
06:36PM 28.4000 -81.2833 360° North 131 151 500 -780 Descending Orlando TRACON